Time;durP1;ratioP1;P1;durP2;ratioP2;P2;SDS_P1;SDS_P2;PMS_P1;PMS_P2;Temp;Humidity;BMP_temperature;BMP_pressure;BME280_temperature;BME280_humidity;BME280_pressure;Samples;Min_cycle;Max_cycle;Signal;HPM_P1;HPM_P2
2022/09/09 03:12:43;;;;;;;9.30;3.45;;;;;;;12.59;100.00;100715.06;6079984;23;20028;-94
2022/09/09 03:15:52;;;;;;;;;;;;;;;;;;;;;
2022/09/09 03:19:02;;;;;;;7.18;3.38;;;;;;;12.60;100.00;100690.75;4897291;29;20038;-94
2022/09/09 03:25:56;;;;;;;6.55;3.50;;;;;;;12.65;100.00;100696.63;4847650;29;20076;-94
2022/09/09 03:28:54;;;;;;;9.82;3.20;;;;;;;12.68;100.00;100685.28;4864712;29;20061;-94
2022/09/09 03:32:04;;;;;;;6.05;3.58;;;;;;;12.73;100.00;100688.56;4900006;29;20411;-94
2022/09/09 03:35:24;;;;;;;11.10;4.07;;;;;;;12.75;100.00;100702.38;4833794;29;20058;-94
2022/09/09 03:38:01;;;;;;;6.50;3.58;;;;;;;12.74;100.00;100697.22;4892089;29;20481;-94
2022/09/09 03:41:06;;;;;;;9.57;3.72;;;;;;;12.66;100.00;100690.53;4898634;29;20066;-94
2022/09/09 03:47:57;;;;;;;6.35;3.13;;;;;;;12.72;100.00;100683.41;4827930;29;20125;-94
2022/09/09 03:54:20;;;;;;;6.40;3.72;;;;;;;12.83;100.00;100689.09;4868495;29;20475;-94
2022/09/09 04:01:01;;;;;;;7.47;3.45;;;;;;;13.02;100.00;100709.22;4828178;29;20120;-94
2022/09/09 04:06:55;;;;;;;9.05;3.72;;;;;;;13.02;100.00;100688.41;4852817;29;20475;-95
2022/09/09 04:09:59;;;;;;;7.68;3.60;;;;;;;13.09;100.00;100691.63;4839385;29;20037;-95
2022/09/09 04:13:54;;;;;;;;;;;;;;;;;;;;;
2022/09/09 04:16:03;;;;;;;7.75;3.50;;;;;;;13.09;100.00;100685.56;4850536;29;20447;-95
2022/09/09 04:19:04;;;;;;;7.00;3.85;;;;;;;13.17;100.00;100696.59;4839907;29;20093;-93
2022/09/09 04:24:51;;;;;;;7.80;3.70;;;;;;;13.14;100.00;100686.28;4890495;29;20067;-94
2022/09/09 04:27:48;;;;;;;;;;;;;;;13.16;100.00;100685.31;4890035;29;20044;-94
2022/09/09 04:31:32;;;;;;;;;;;;;;;;;;;;;
2022/09/09 04:34:04;;;;;;;9.63;3.63;;;;;;;13.15;100.00;100680.16;4868792;29;20047;-94
2022/09/09 04:40:04;;;;;;;8.18;3.67;;;;;;;13.08;100.00;100666.50;4855519;29;20029;-93
2022/09/09 04:43:04;;;;;;;10.63;3.75;;;;;;;13.12;100.00;100673.28;4855285;29;20041;-93
2022/09/09 04:46:29;;;;;;;8.43;3.70;;;;;;;13.19;100.00;100679.97;4819313;29;20037;-95
2022/09/09 04:50:02;;;;;;;8.35;3.63;;;;;;;13.18;100.00;100661.81;4824533;29;20929;-93
2022/09/09 05:07:46;;;;;;;;;;;;;;;;;;;;;
2022/09/09 05:10:04;;;;;;;8.15;3.35;;;;;;;13.24;100.00;100656.38;4801770;29;20704;-95
2022/09/09 05:16:34;;;;;;;10.73;3.60;;;;;;;13.20;100.00;100662.63;4798534;29;20049;-95
2022/09/09 05:27:04;;;;;;;9.15;3.55;;;;;;;13.30;100.00;100658.78;4780504;29;20043;-95
2022/09/09 05:37:09;;;;;;;9.57;3.50;;;;;;;13.47;100.00;100665.94;4708842;30;20053;-94
2022/09/09 05:44:12;;;;;;;9.77;3.47;;;;;;;13.45;100.00;100661.63;4730741;30;20503;-93
2022/09/09 05:47:12;;;;;;;;;;;;;;;;;;;;;
2022/09/09 05:49:57;;;;;;;11.32;3.75;;;;;;;13.40;100.00;100657.50;4753722;30;20052;-94
2022/09/09 05:53:30;;;;;;;;;;;;;;;;;;;;;
2022/09/09 05:57:02;;;;;;;9.25;3.70;;;;;;;13.49;100.00;100677.13;4748684;30;20043;-93
2022/09/09 06:03:46;;;;;;;;;;;;;;;;;;;;;
2022/09/09 06:22:35;;;;;;;9.52;3.95;;;;;;;13.57;100.00;100664.69;4835780;29;20123;-91
2022/09/09 06:29:15;;;;;;;10.35;3.65;;;;;;;13.73;100.00;100671.81;4798355;29;20035;-93
2022/09/09 06:35:01;;;;;;;12.50;3.78;;;;;;;13.87;100.00;100667.81;4817409;29;20041;-93
2022/09/09 06:38:10;;;;;;;9.40;4.32;;;;;;;14.04;100.00;100681.88;4840777;29;20063;-93
2022/09/09 06:41:53;;;;;;;;;;;;;;;;;;;;;
2022/09/09 06:48:14;;;;;;;12.57;4.50;;;;;;;14.64;100.00;100680.25;4853766;29;20033;-93
2022/09/09 06:51:01;;;;;;;11.23;4.27;;;;;;;14.54;100.00;100660.69;4875538;29;20108;-93
2022/09/09 06:54:19;;;;;;;;;;;;;;;;;;;;;
2022/09/09 06:57:03;;;;;;;9.95;4.47;;;;;;;14.66;100.00;100674.97;4836677;29;20119;-94
2022/09/09 07:00:01;;;;;;;12.80;4.85;;;;;;;14.66;100.00;100660.19;4870342;29;20028;-93
2022/09/09 07:05:56;;;;;;;10.05;4.50;;;;;;;14.68;100.00;100658.34;4875835;29;20033;-93
2022/09/09 07:09:03;;;;;;;12.63;4.38;;;;;;;14.70;100.00;100651.28;4899785;29;20048;-96
2022/09/09 07:12:12;;;;;;;15.48;4.40;;;;;;;14.77;100.00;100657.09;4817935;29;20038;-95
2022/09/09 07:15:13;;;;;;;;;;;;;;;;;;;;;
2022/09/09 07:18:14;;;;;;;12.93;4.47;;;;;;;14.84;100.00;100658.50;4883154;29;20037;-93
2022/09/09 07:21:02;;;;;;;11.95;4.25;;;;;;;14.98;100.00;100674.41;4882135;29;20039;-95
2022/09/09 07:24:02;;;;;;;13.25;4.78;;;;;;;15.04;100.00;100681.97;4869621;29;20491;-94
2022/09/09 07:27:27;;;;;;;10.85;4.38;;;;;;;15.17;100.00;100672.66;4889348;29;20040;-94
2022/09/09 07:30:02;;;;;;;12.27;4.55;;;;;;;15.21;100.00;100661.19;4864671;29;20040;-94
2022/09/09 07:33:03;;;;;;;9.60;4.10;;;;;;;15.39;100.00;100672.53;4854735;29;20180;-94
2022/09/09 07:35:42;;;;;;;10.98;4.30;;;;;;;15.31;100.00;100646.78;4852596;29;20510;-94
2022/09/09 07:38:11;;;;;;;11.32;4.20;;;;;;;15.38;100.00;100652.56;4855447;29;20113;-93
2022/09/09 07:43:53;;;;;;;14.48;4.38;;;;;;;15.58;100.00;100644.66;4879359;29;20037;-94
2022/09/09 07:46:55;;;;;;;11.43;4.05;;;;;;;15.74;100.00;100669.16;4870033;29;20028;-93
2022/09/09 07:50:21;;;;;;;11.30;3.95;;;;;;;15.78;100.00;100662.00;4875183;29;20041;-93
2022/09/09 07:52:46;;;;;;;10.00;3.78;;;;;;;15.89;100.00;100664.13;4774573;29;20159;-95
2022/09/09 07:56:02;;;;;;;8.00;3.50;;;;;;;15.86;100.00;100662.47;4866312;29;20642;-93
2022/09/09 07:58:42;;;;;;;8.30;3.63;;;;;;;15.92;100.00;100677.88;4862788;29;20492;-93
2022/09/09 08:01:33;;;;;;;12.55;3.60;;;;;;;15.93;100.00;100681.34;4875287;29;20056;-93
2022/09/09 08:04:15;;;;;;;8.98;3.60;;;;;;;15.86;100.00;100657.25;4871315;29;20281;-93
2022/09/09 08:07:17;;;;;;;10.93;3.40;;;;;;;16.00;100.00;100672.28;4875233;29;20402;-92
2022/09/09 08:10:01;;;;;;;9.82;3.50;;;;;;;16.05;100.00;100670.28;4822895;29;20509;-92
2022/09/09 08:15:50;;;;;;;10.02;3.00;;;;;;;16.15;100.00;100663.69;4877555;29;20113;-93
2022/09/09 08:19:11;;;;;;;8.63;3.10;;;;;;;16.29;100.00;100681.31;4837785;29;20499;-92
2022/09/09 08:22:00;;;;;;;8.48;2.97;;;;;;;16.28;100.00;100692.69;4888487;29;20568;-92
2022/09/09 08:27:46;;;;;;;10.13;3.72;;;;;;;16.26;100.00;100663.97;4836454;29;20041;-92
2022/09/09 08:30:17;;;;;;;11.05;3.20;;;;;;;16.25;100.00;100672.75;4821199;29;20511;-92
2022/09/09 08:33:01;;;;;;;13.85;3.83;;;;;;;16.25;100.00;100684.97;4818096;29;20034;-92
2022/09/09 08:36:15;;;;;;;7.53;4.00;;;;;;;16.23;100.00;100671.16;4830181;29;20041;-91
2022/09/09 08:38:51;;;;;;;9.30;3.72;;;;;;;16.23;100.00;100677.22;4856460;29;20041;-92
2022/09/09 08:41:57;;;;;;;9.60;3.55;;;;;;;16.39;100.00;100693.84;4886213;29;20476;-91
2022/09/09 08:44:52;;;;;;;11.60;3.40;;;;;;;16.40;100.00;100700.75;4886268;29;20040;-92
2022/09/09 08:47:42;;;;;;;7.25;3.35;;;;;;;16.39;100.00;100706.91;4864048;29;20063;-91
2022/09/09 08:50:35;;;;;;;11.77;3.60;;;;;;;16.30;100.00;100693.47;4874378;29;20044;-91
2022/09/09 08:53:57;;;;;;;14.63;3.70;;;;;;;16.42;100.00;100703.31;4876193;29;20032;-91
2022/09/09 09:00:12;;;;;;;10.30;3.55;;;;;;;16.45;100.00;100711.00;4875739;29;20103;-91
2022/09/09 09:03:23;;;;;;;9.10;3.08;;;;;;;16.39;100.00;100691.22;4838043;29;20125;-90
2022/09/09 09:09:37;;;;;;;9.02;3.00;;;;;;;16.41;100.00;100712.06;4763527;30;21488;-91
2022/09/09 09:12:50;;;;;;;9.30;3.30;;;;;;;16.23;100.00;100695.53;4763281;30;20135;-91
2022/09/09 09:16:00;;;;;;;8.82;3.40;;;;;;;16.31;100.00;100722.13;4695719;30;20475;-91
2022/09/09 09:19:02;;;;;;;;;;;;;;;;;;;;;
2022/09/09 09:21:50;;;;;;;11.13;3.45;;;;;;;16.24;100.00;100722.53;4795591;29;20039;-91
2022/09/09 09:25:01;;;;;;;10.68;3.13;;;;;;;16.22;100.00;100711.28;4873882;29;20499;-91
2022/09/09 09:28:05;;;;;;;9.15;3.10;;;;;;;16.31;100.00;100722.13;4867634;29;20519;-91
2022/09/09 09:30:50;;;;;;;10.20;3.17;;;;;;;16.36;100.00;100725.41;4875506;29;20029;-91
2022/09/09 09:33:20;;;;;;;10.02;3.40;;;;;;;16.41;100.00;100723.38;4868204;29;20037;-91
2022/09/09 09:35:45;;;;;;;9.23;3.25;;;;;;;16.48;98.73;100718.69;4856529;29;20060;-92
2022/09/09 09:38:22;;;;;;;7.72;3.55;;;;;;;16.56;99.42;100713.94;4876453;29;20060;-91
2022/09/09 09:41:01;;;;;;;9.60;3.33;;;;;;;16.59;99.46;100719.84;4875905;29;20321;-91
2022/09/09 09:44:01;;;;;;;7.85;3.10;;;;;;;16.62;99.27;100703.19;4849389;29;20018;-91
2022/09/09 09:47:02;;;;;;;6.07;3.00;;;;;;;16.75;97.59;100714.72;4831622;29;20507;-91
2022/09/09 09:50:02;;;;;;;8.57;3.25;;;;;;;16.90;100.00;100716.56;4798980;29;20425;-91
2022/09/09 09:53:07;;;;;;;10.30;3.38;;;;;;;16.90;99.72;100706.06;4825727;29;20586;-91
2022/09/09 09:56:02;;;;;;;8.90;3.05;;;;;;;16.95;99.19;100701.44;4843337;29;20044;-91
2022/09/09 09:59:00;;;;;;;8.27;2.70;;;;;;;17.20;97.67;100711.47;4871329;29;20116;-92
2022/09/09 10:02:08;;;;;;;9.52;3.20;;;;;;;17.18;96.94;100705.47;4879313;29;20319;-91
2022/09/09 10:05:19;;;;;;;9.38;2.92;;;;;;;17.30;95.81;100714.44;4843353;29;20045;-90
2022/09/09 10:08:03;;;;;;;8.07;2.72;;;;;;;17.26;96.13;100716.38;4862225;29;20033;-91
2022/09/09 10:11:02;;;;;;;11.10;2.90;;;;;;;17.28;96.53;100711.06;4871113;29;20547;-91
2022/09/09 10:14:17;;;;;;;5.80;2.90;;;;;;;17.19;96.66;100696.69;4877036;29;20488;-91
2022/09/09 10:21:02;;;;;;;6.57;2.90;;;;;;;17.06;97.49;100723.63;4875401;29;20052;-91
2022/09/09 10:31:01;;;;;;;11.25;2.90;;;;;;;16.87;100.00;100723.72;4838721;29;20040;-91
2022/09/09 10:34:02;;;;;;;9.63;2.90;;;;;;;16.94;98.13;100727.69;4867572;29;20057;-91
2022/09/09 10:37:04;;;;;;;9.15;2.95;;;;;;;16.93;100.00;100712.91;4872317;29;20169;-91
2022/09/09 10:40:39;;;;;;;;;;;;;;;;;;;;;
2022/09/09 10:43:45;;;;;;;5.70;2.93;;;;;;;17.28;99.63;100725.00;4876261;29;20473;-91
2022/09/09 10:46:35;;;;;;;11.23;3.50;;;;;;;17.21;98.22;100743.75;4876275;29;20037;-91
2022/09/09 10:50:00;;;;;;;10.98;5.18;;;;;;;17.19;100.00;100737.75;4875691;29;20392;-91
2022/09/09 10:53:01;;;;;;;8.45;3.08;;;;;;;17.21;99.75;100736.72;4871371;29;20063;-91
2022/09/09 10:55:43;;;;;;;9.68;3.30;;;;;;;17.11;99.32;100714.59;4888634;29;20574;-91
2022/09/09 11:03:02;;;;;;;6.78;3.00;;;;;;;17.07;99.51;100720.91;4810232;29;20033;-92
2022/09/09 11:06:20;;;;;;;7.95;3.42;;;;;;;17.02;98.53;100717.69;4849425;29;20179;-91
2022/09/09 11:09:02;;;;;;;8.43;3.38;;;;;;;17.08;99.94;100725.22;4844735;29;20407;-92
2022/09/09 11:11:48;;;;;;;9.50;3.20;;;;;;;17.23;100.00;100728.81;4876519;29;20060;-91
2022/09/09 11:15:28;;;;;;;;;;;;;;;;;;;;;
2022/09/09 11:18:01;;;;;;;6.78;2.85;;;;;;;17.38;99.58;100712.28;4855651;29;20430;-91
2022/09/09 11:20:48;;;;;;;8.35;3.00;;;;;;;17.52;99.84;100722.00;4855991;29;20045;-91
2022/09/09 11:23:52;;;;;;;8.13;2.97;;;;;;;17.48;100.00;100723.94;4855456;29;20053;-91
2022/09/09 11:27:01;;;;;;;8.90;2.97;;;;;;;17.35;99.12;100712.41;4840347;29;20037;-91
2022/09/09 11:36:50;;;;;;;8.75;3.35;;;;;;;17.42;99.43;100705.91;4875471;29;20038;-91
2022/09/09 11:46:16;;;;;;;7.40;2.90;;;;;;;17.69;98.45;100700.97;4868991;29;20041;-92
2022/09/09 11:52:56;;;;;;;7.25;2.95;;;;;;;17.72;97.06;100704.28;4869367;29;20077;-91
2022/09/09 11:56:00;;;;;;;6.68;3.00;;;;;;;17.78;97.83;100716.22;4862902;29;20045;-91
2022/09/09 12:06:02;;;;;;;6.68;2.85;;;;;;;17.54;95.02;100712.25;4836098;29;20116;-91
2022/09/09 12:09:05;;;;;;;6.57;2.97;;;;;;;17.42;96.63;100726.03;4836851;29;20048;-92
2022/09/09 12:11:42;;;;;;;6.30;3.10;;;;;;;17.24;97.76;100710.38;4855056;29;20081;-91
2022/09/09 12:14:59;;;;;;;;;;;;;;;;;;;;;
2022/09/09 12:18:02;;;;;;;6.55;3.10;;;;;;;17.50;97.79;100711.59;4876478;29;20024;-91
2022/09/09 12:24:00;;;;;;;8.50;3.35;;;;;;;17.81;97.16;100713.41;4867179;29;20067;-90
2022/09/09 12:26:44;;;;;;;7.95;3.58;;;;;;;17.87;98.29;100702.59;4882261;29;20490;-90
2022/09/09 12:30:02;;;;;;;8.70;3.58;;;;;;;18.18;97.67;100709.56;4863339;29;20451;-90
2022/09/09 12:33:01;;;;;;;8.02;3.17;;;;;;;18.42;97.37;100696.81;4853823;29;20045;-90
2022/09/09 12:35:53;;;;;;;7.25;3.33;;;;;;;18.58;94.18;100687.13;4849532;29;20052;-90
2022/09/09 12:38:49;;;;;;;8.30;3.17;;;;;;;18.72;93.36;100705.53;4847111;29;20182;-90
2022/09/09 12:42:02;;;;;;;7.65;3.40;;;;;;;18.71;92.82;100709.06;4874215;29;20179;-90
2022/09/09 12:44:42;;;;;;;5.55;3.10;;;;;;;18.69;91.13;100710.97;4846697;29;20075;-90
2022/09/09 12:47:47;;;;;;;9.07;3.08;;;;;;;18.62;91.78;100679.91;4874354;29;20607;-91
2022/09/09 12:50:46;;;;;;;6.97;2.92;;;;;;;18.72;89.90;100689.75;4888266;29;20036;-91
2022/09/09 12:53:58;;;;;;;8.68;2.90;;;;;;;18.77;91.77;100699.97;4849069;29;20056;-91
2022/09/09 12:56:59;;;;;;;5.60;3.08;;;;;;;18.60;90.61;100685.25;4874753;29;20033;-90
2022/09/09 13:00:01;;;;;;;7.70;3.00;;;;;;;18.48;91.21;100678.91;4874808;29;20406;-92
2022/09/09 13:02:45;;;;;;;6.80;3.10;;;;;;;18.48;89.07;100685.94;4861595;29;20025;-91
2022/09/09 13:06:02;;;;;;;6.40;2.88;;;;;;;18.40;90.92;100704.78;4873890;29;20443;-91
2022/09/09 13:09:03;;;;;;;9.00;3.00;;;;;;;18.14;92.20;100698.41;4810202;29;20196;-90
2022/09/09 13:11:56;;;;;;;7.20;3.08;;;;;;;18.03;93.02;100703.41;4829844;29;20036;-90
2022/09/09 13:14:34;;;;;;;9.65;3.25;;;;;;;17.83;93.39;100708.91;4853369;29;20041;-90
2022/09/09 13:17:03;;;;;;;6.72;3.38;;;;;;;17.57;95.64;100683.28;4874030;29;20033;-90
2022/09/09 13:19:45;;;;;;;9.60;3.20;;;;;;;17.38;96.06;100675.59;4874086;29;20056;-90
2022/09/09 13:22:24;;;;;;;6.00;3.60;;;;;;;17.13;97.67;100688.28;4875232;29;20120;-90
2022/09/09 13:25:02;;;;;;;8.93;3.63;;;;;;;17.09;100.00;100703.34;4873974;29;20036;-90
2022/09/09 13:27:53;;;;;;;9.18;4.10;;;;;;;17.14;100.00;100696.06;4887376;29;20025;-89
2022/09/09 13:30:33;;;;;;;8.88;4.18;;;;;;;17.32;100.00;100697.72;4847255;29;20189;-92
2022/09/09 13:33:10;;;;;;;9.90;4.50;;;;;;;17.52;100.00;100694.03;4864307;29;20027;-92
2022/09/09 13:35:49;;;;;;;8.18;3.80;;;;;;;17.77;100.00;100694.38;4889522;29;20124;-91
2022/09/09 13:38:15;;;;;;;10.55;3.83;;;;;;;17.91;100.00;100674.41;4878857;29;20024;-92
2022/09/09 13:41:04;;;;;;;9.52;4.15;;;;;;;18.13;100.00;100674.88;4862218;29;20464;-91
2022/09/09 13:43:42;;;;;;;7.50;3.90;;;;;;;18.35;100.00;100666.59;4881761;29;20104;-92
2022/09/09 13:46:33;;;;;;;11.48;4.22;;;;;;;18.59;100.00;100669.59;4869089;29;20395;-92
2022/09/09 13:49:13;;;;;;;8.90;3.97;;;;;;;18.63;98.25;100673.72;4867323;29;20164;-92
2022/09/09 13:51:48;;;;;;;8.05;4.13;;;;;;;18.50;99.89;100658.66;4878021;29;20025;-91
2022/09/09 13:54:16;;;;;;;11.65;3.72;;;;;;;18.56;98.48;100648.78;4862104;29;20044;-91
2022/09/09 13:56:42;;;;;;;7.60;3.63;;;;;;;18.53;98.45;100658.47;4878654;29;20032;-92
2022/09/09 13:59:19;;;;;;;6.00;3.42;;;;;;;18.56;100.00;100649.59;4878979;29;20391;-90
2022/09/09 14:01:45;;;;;;;7.22;3.33;;;;;;;18.49;95.30;100651.72;4883602;29;20170;-89
2022/09/09 14:04:10;;;;;;;9.88;3.20;;;;;;;18.51;97.34;100652.47;4886277;29;20131;-89
2022/09/09 14:06:38;;;;;;;8.20;3.35;;;;;;;18.49;96.08;100654.34;4866065;29;20112;-89
2022/09/09 14:09:05;;;;;;;8.60;2.85;;;;;;;18.51;93.42;100675.25;4870288;29;20037;-90
2022/09/09 14:11:33;;;;;;;7.05;2.80;;;;;;;18.43;94.49;100667.81;4877516;29;20037;-89
2022/09/09 14:14:01;;;;;;;6.38;2.70;;;;;;;18.35;95.33;100656.97;4888925;29;20035;-90
2022/09/09 14:16:45;;;;;;;7.57;2.60;;;;;;;18.42;96.87;100673.19;4862711;29;20475;-90
2022/09/09 14:19:13;;;;;;;7.30;2.63;;;;;;;18.35;93.59;100646.47;4870691;29;20517;-90
2022/09/09 14:21:41;;;;;;;7.05;2.88;;;;;;;18.57;93.55;100658.31;4884139;29;20025;-89
2022/09/09 14:24:12;;;;;;;8.18;2.85;;;;;;;18.60;96.13;100656.38;4884608;29;20028;-89
2022/09/09 14:26:40;;;;;;;6.60;2.72;;;;;;;18.64;93.26;100652.59;4849582;29;20415;-90
2022/09/09 14:29:06;;;;;;;5.95;2.72;;;;;;;18.62;92.57;100649.25;4861410;29;20041;-91
2022/09/09 14:31:38;;;;;;;5.63;2.72;;;;;;;18.65;92.37;100656.94;4872542;29;20029;-91
2022/09/09 14:34:12;;;;;;;6.38;2.80;;;;;;;18.63;92.26;100655.34;4851701;29;20066;-92
2022/09/09 14:36:41;;;;;;;7.88;3.10;;;;;;;18.52;94.67;100646.28;4877139;29;20035;-91
2022/09/09 14:39:10;;;;;;;5.53;2.92;;;;;;;18.62;94.79;100669.41;4875679;29;20078;-91
2022/09/09 14:41:38;;;;;;;7.50;3.20;;;;;;;18.48;91.85;100652.66;4889252;29;20036;-92
2022/09/09 14:44:04;;;;;;;5.60;2.70;;;;;;;18.57;92.13;100659.16;4877227;29;20068;-91
2022/09/09 14:46:43;;;;;;;8.13;3.20;;;;;;;18.47;94.66;100640.47;4888557;29;20533;-92
2022/09/09 14:49:32;;;;;;;7.57;3.00;;;;;;;18.59;92.47;100656.47;4878454;29;20527;-91
2022/09/09 14:52:00;;;;;;;5.65;2.63;;;;;;;18.47;91.74;100653.59;4868667;29;20128;-91
2022/09/09 14:54:30;;;;;;;9.63;2.65;;;;;;;18.46;91.60;100659.78;4877756;29;20021;-91
2022/09/09 14:57:02;;;;;;;4.88;2.55;;;;;;;18.39;93.65;100652.34;4875495;29;20041;-91
2022/09/09 14:59:34;;;;;;;4.65;2.63;;;;;;;18.43;92.11;100654.69;4890765;29;20032;-90
2022/09/09 15:02:03;;;;;;;6.53;2.50;;;;;;;18.41;89.81;100669.72;4875934;29;20029;-90
2022/09/09 15:04:32;;;;;;;6.38;2.60;;;;;;;18.21;90.68;100641.19;4880412;29;20719;-89
2022/09/09 15:07:03;;;;;;;6.00;2.60;;;;;;;18.09;89.43;100654.97;4884603;29;20100;-90
2022/09/09 15:09:37;;;;;;;5.20;2.60;;;;;;;17.98;91.03;100649.50;4873670;29;20111;-90
2022/09/09 15:12:02;;;;;;;5.70;2.35;;;;;;;17.93;92.80;100655.03;4869463;29;20089;-90
2022/09/09 15:14:31;;;;;;;4.65;2.50;;;;;;;17.89;91.35;100657.91;4884226;29;20064;-89
2022/09/09 15:16:57;;;;;;;4.30;2.50;;;;;;;17.81;89.69;100650.47;4866639;29;20025;-89
2022/09/09 15:19:31;;;;;;;6.88;2.60;;;;;;;17.73;90.13;100647.47;4860165;29;20051;-90
2022/09/09 15:22:05;;;;;;;8.48;2.80;;;;;;;17.75;92.87;100662.16;4860229;29;20522;-90
2022/09/09 15:24:37;;;;;;;10.32;2.75;;;;;;;17.66;92.82;100661.84;4877290;29;20021;-90
2022/09/09 15:27:03;;;;;;;7.22;2.80;;;;;;;17.58;94.07;100666.63;4875674;29;20056;-89
2022/09/09 15:29:28;;;;;;;8.27;3.33;;;;;;;17.60;95.84;100685.75;4883080;29;20028;-90
2022/09/09 15:31:55;;;;;;;7.57;3.47;;;;;;;17.41;98.12;100690.28;4881762;29;20048;-90
2022/09/09 15:34:23;;;;;;;11.85;3.63;;;;;;;17.21;100.00;100715.78;4873602;29;20517;-92
2022/09/09 15:37:00;;;;;;;8.45;2.72;;;;;;;16.87;99.48;100724.56;4860034;29;20112;-93
2022/09/09 15:40:01;;;;;;;6.63;2.20;;;;;;;16.29;99.10;100710.06;4876501;29;20043;-93
2022/09/09 15:43:03;;;;;;;8.52;1.90;;;;;;;16.05;100.00;100733.88;4876763;29;20025;-95
2022/09/09 15:45:39;;;;;;;5.82;1.90;;;;;;;15.69;100.00;100712.94;4876629;29;20060;-94
2022/09/09 15:48:04;;;;;;;5.75;1.80;;;;;;;15.48;100.00;100690.41;4873042;29;20037;-95
2022/09/09 15:51:02;;;;;;;2.50;2.03;;;;;;;15.42;100.00;100701.97;4872082;29;20089;-94
2022/09/09 15:54:07;;;;;;;4.97;2.40;;;;;;;15.39;100.00;100712.56;4887875;29;20040;-93
2022/09/09 15:56:58;;;;;;;5.57;2.80;;;;;;;15.29;100.00;100698.22;4875548;29;20496;-94
2022/09/09 16:00:00;;;;;;;6.32;2.92;;;;;;;15.21;100.00;100694.28;4843867;29;20100;-94
2022/09/09 16:05:29;;;;;;;6.38;3.00;;;;;;;15.27;100.00;100689.63;4872407;29;20055;-94
2022/09/09 16:08:00;;;;;;;6.45;2.40;;;;;;;15.36;100.00;100685.72;4870205;29;20557;-93
2022/09/09 16:10:34;;;;;;;7.28;2.67;;;;;;;15.56;100.00;100701.34;4863522;29;20032;-93
2022/09/09 16:13:02;;;;;;;4.72;2.20;;;;;;;15.55;100.00;100698.84;4887726;29;20032;-93
2022/09/09 16:15:58;;;;;;;3.65;1.85;;;;;;;15.46;100.00;100678.31;4863361;29;20033;-94
2022/09/09 16:19:12;;;;;;;4.40;1.95;;;;;;;15.44;100.00;100691.44;4878043;29;20461;-94
2022/09/09 16:21:58;;;;;;;6.68;2.50;;;;;;;15.41;100.00;100687.22;4877675;29;20522;-94
2022/09/09 16:27:40;;;;;;;5.35;2.42;;;;;;;15.39;100.00;100714.31;4857746;29;20046;-94
2022/09/09 16:30:39;;;;;;;;;;;;;;;;;;;;;
2022/09/09 16:36:51;;;;;;;4.60;2.75;;;;;;;15.35;100.00;100729.28;4888508;29;20040;-95
2022/09/09 16:43:12;;;;;;;5.35;3.20;;;;;;;15.18;100.00;100718.75;4870770;29;20037;-95
2022/09/09 16:46:02;;;;;;;7.93;3.15;;;;;;;15.26;100.00;100734.09;4874340;29;20041;-94
2022/09/09 16:48:54;;;;;;;5.05;3.28;;;;;;;15.08;100.00;100719.25;4858796;29;20058;-94
2022/09/09 16:51:58;;;;;;;5.63;3.38;;;;;;;15.10;100.00;100727.84;4866097;29;20044;-95
2022/09/09 16:58:01;;;;;;;8.55;4.13;;;;;;;15.05;100.00;100725.44;4891153;29;20040;-94
2022/09/09 17:00:51;;;;;;;;;;;;;;;;;;;;;
2022/09/09 17:03:40;;;;;;;8.52;4.97;;;;;;;15.00;100.00;100720.44;4865909;29;20025;-95
2022/09/09 17:12:35;;;;;;;9.05;5.75;;;;;;;15.16;100.00;100738.84;4871900;29;20029;-94
2022/09/09 17:15:02;;;;;;;9.68;6.05;;;;;;;15.01;100.00;100718.66;4891779;29;20069;-95
2022/09/09 17:20:46;;;;;;;10.20;6.30;;;;;;;15.06;100.00;100724.53;4871097;29;20140;-94
2022/09/09 17:23:39;;;;;;;;;;;;;;;;;;;;;
2022/09/09 17:26:47;;;;;;;11.20;6.38;;;;;;;15.19;100.00;100738.72;4881503;29;20041;-94
2022/09/09 17:29:53;;;;;;;11.50;6.28;;;;;;;15.03;100.00;100717.66;4861491;29;20760;-92
2022/09/09 17:32:47;;;;;;;8.32;5.57;;;;;;;15.08;100.00;100724.47;4871279;29;20044;-94
2022/09/09 17:35:16;;;;;;;6.47;5.55;;;;;;;15.19;100.00;100749.19;4870619;29;20037;-94
2022/09/09 17:38:00;;;;;;;9.70;5.47;;;;;;;15.21;100.00;100751.72;4877765;29;20033;-94
2022/09/09 17:43:37;;;;;;;5.60;4.90;;;;;;;15.10;100.00;100738.28;4888505;29;20029;-94
2022/09/09 17:46:36;;;;;;;7.40;5.18;;;;;;;15.16;100.00;100758.91;4877119;29;20037;-93
2022/09/09 17:52:01;;;;;;;4.53;3.97;;;;;;;15.07;100.00;100756.69;4879246;29;20048;-94
2022/09/09 17:54:56;;;;;;;4.97;3.92;;;;;;;15.01;100.00;100763.88;4877355;29;20059;-93
2022/09/09 17:57:49;;;;;;;6.40;4.38;;;;;;;15.08;100.00;100779.28;4890395;29;20040;-93
2022/09/09 18:00:30;;;;;;;5.63;3.83;;;;;;;14.93;100.00;100772.97;4861826;29;20124;-94
2022/09/09 18:03:02;;;;;;;5.97;3.60;;;;;;;14.89;100.00;100784.44;4878896;29;20067;-95
2022/09/09 18:06:02;;;;;;;4.25;3.70;;;;;;;14.81;100.00;100773.44;4877283;29;20056;-96
2022/09/09 18:11:58;;;;;;;3.80;3.40;;;;;;;14.74;100.00;100772.88;4863792;29;20029;-94
2022/09/09 18:14:43;;;;;;;6.03;3.70;;;;;;;14.67;100.00;100766.22;4840648;29;20127;-95
2022/09/09 18:18:05;;;;;;;6.88;3.80;;;;;;;14.75;100.00;100790.22;4877011;29;20037;-95
2022/09/09 18:20:53;;;;;;;5.82;3.33;;;;;;;14.67;100.00;100779.25;4798842;29;20056;-95
2022/09/09 18:23:21;;;;;;;4.45;3.63;;;;;;;14.68;100.00;100798.38;4799669;29;20397;-95
2022/09/09 18:25:47;;;;;;;4.70;3.30;;;;;;;14.61;100.00;100801.22;4852981;29;20088;-95
2022/09/09 18:28:15;;;;;;;4.65;3.47;;;;;;;14.49;100.00;100799.13;4867760;29;20049;-94
2022/09/09 18:30:53;;;;;;;5.70;3.50;;;;;;;14.50;100.00;100807.81;4877387;29;20502;-92
2022/09/09 18:33:41;;;;;;;7.82;3.50;;;;;;;14.44;100.00;100805.44;4878908;29;20052;-94
2022/09/09 18:36:41;;;;;;;5.43;3.50;;;;;;;14.41;100.00;100819.44;4880415;29;20036;-93
2022/09/09 18:39:31;;;;;;;4.97;3.67;;;;;;;14.32;100.00;100809.38;4879634;29;20517;-92
2022/09/09 18:42:03;;;;;;;6.80;3.83;;;;;;;14.35;100.00;100821.41;4880946;29;20039;-93
2022/09/09 18:44:52;;;;;;;7.35;3.90;;;;;;;14.28;100.00;100814.75;4883501;29;20033;-93
2022/09/09 18:47:18;;;;;;;5.03;3.88;;;;;;;14.21;100.00;100812.38;4859420;29;20052;-93
2022/09/09 18:49:49;;;;;;;5.43;4.03;;;;;;;14.28;100.00;100822.56;4885438;29;20041;-92
2022/09/09 18:52:15;;;;;;;9.15;4.68;;;;;;;14.20;100.00;100815.03;4882462;29;20064;-93
2022/09/09 18:54:44;;;;;;;8.07;6.05;;;;;;;14.16;100.00;100811.72;4861368;29;20128;-94
2022/09/09 18:57:17;;;;;;;8.75;5.80;;;;;;;14.27;100.00;100829.53;4875485;29;20028;-93
2022/09/09 19:00:01;;;;;;;8.38;5.93;;;;;;;14.13;100.00;100810.97;4859455;29;20029;-93
2022/09/09 19:02:29;;;;;;;8.57;5.53;;;;;;;14.17;100.00;100821.25;4880609;29;20042;-93
2022/09/09 19:04:57;;;;;;;10.93;5.38;;;;;;;14.11;100.00;100815.41;4877401;29;20118;-93
2022/09/09 19:07:25;;;;;;;7.80;5.70;;;;;;;14.18;100.00;100830.75;4875272;29;20032;-93
2022/09/09 19:09:56;;;;;;;8.45;5.72;;;;;;;14.11;100.00;100826.69;4881732;29;20603;-92
2022/09/09 19:12:48;;;;;;;9.02;5.90;;;;;;;14.09;100.00;100825.91;4886543;29;20494;-93
2022/09/09 19:16:01;;;;;;;8.18;5.25;;;;;;;14.08;100.00;100829.41;4882672;29;20052;-94
2022/09/09 19:18:43;;;;;;;8.40;5.40;;;;;;;14.07;100.00;100840.75;4881440;29;20040;-93
2022/09/09 19:21:22;;;;;;;7.95;4.90;;;;;;;14.07;100.00;100834.66;4875687;29;20451;-93
2022/09/09 19:23:54;;;;;;;7.55;5.40;;;;;;;14.00;100.00;100830.59;4874249;29;20033;-92
2022/09/09 19:26:53;;;;;;;9.52;5.28;;;;;;;14.12;100.00;100856.22;4873559;29;20127;-93
2022/09/09 19:29:30;;;;;;;8.10;4.82;;;;;;;14.11;100.00;100855.38;4876535;29;20039;-93
2022/09/09 19:32:02;;;;;;;7.95;5.80;;;;;;;13.92;100.00;100838.69;4858270;29;20068;-93
2022/09/09 19:35:15;;;;;;;8.82;5.65;;;;;;;13.95;100.00;100845.56;4862592;29;20028;-93
2022/09/09 19:37:46;;;;;;;10.00;5.78;;;;;;;13.97;100.00;100851.59;4837525;29;20072;-93
2022/09/09 19:40:41;;;;;;;9.75;6.03;;;;;;;13.90;100.00;100845.75;4841976;29;20041;-95
2022/09/09 19:43:08;;;;;;;8.77;5.80;;;;;;;14.01;100.00;100868.78;4866015;29;20037;-94
2022/09/09 19:45:40;;;;;;;10.48;6.50;;;;;;;13.92;100.00;100856.13;4867244;29;20041;-96